createdAt,value
2018-08-14T00:01:38.963Z,65.77
2018-08-14T00:04:12.620Z,65.13
2018-08-14T00:06:45.869Z,65.97
2018-08-14T00:09:19.489Z,64.57
2018-08-14T00:11:54.260Z,65.93
2018-08-14T00:14:29.142Z,65.23
2018-08-14T00:17:06.877Z,63.63
2018-08-14T00:19:40.706Z,65.80
2018-08-14T00:22:19.254Z,64.73
2018-08-14T00:24:53.565Z,64.63
2018-08-14T00:27:29.588Z,63.87
2018-08-14T00:30:03.626Z,64.17
2018-08-14T00:32:38.348Z,62.87
2018-08-14T00:35:13.606Z,63.23
2018-08-14T00:37:50.066Z,66.03
2018-08-14T00:43:09.194Z,63.57
2018-08-14T00:45:47.095Z,61.13
2018-08-14T00:48:21.925Z,59.53
2018-08-14T00:54:06.275Z,58.93
2018-08-14T00:56:41.429Z,60.97
2018-08-14T00:59:14.796Z,56.73
2018-08-14T01:01:48.082Z,56.57
2018-08-14T01:04:21.393Z,57.63
2018-08-14T01:06:55.068Z,58.63
2018-08-14T01:09:36.269Z,60.10
2018-08-14T01:12:13.613Z,58.03
2018-08-14T01:14:52.430Z,58.20
2018-08-14T01:17:30.012Z,55.80
2018-08-14T01:20:08.829Z,56.47
2018-08-14T01:22:50.974Z,54.77
2018-08-14T01:25:33.209Z,56.13
2018-08-14T01:28:11.325Z,53.93
2018-08-14T01:30:46.536Z,55.07
2018-08-14T01:33:28.599Z,54.33
2018-08-14T01:36:12.159Z,52.87
2018-08-14T01:38:49.963Z,54.20
2018-08-14T01:41:24.782Z,52.93
2018-08-14T01:43:58.454Z,53.20
2018-08-14T01:46:31.613Z,52.73
2018-08-14T01:49:05.537Z,53.47
2018-08-14T01:51:39.931Z,49.80
2018-08-14T01:54:13.421Z,50.60
2018-08-14T01:56:47.860Z,49.83
2018-08-14T01:59:22.726Z,49.60
2018-08-14T02:01:56.074Z,50.00
2018-08-14T02:04:31.637Z,48.83
2018-08-14T02:07:06.219Z,48.63
2018-08-14T02:09:40.608Z,50.43
2018-08-14T02:12:14.227Z,48.47
2018-08-14T02:14:47.458Z,49.13
2018-08-14T02:17:21.047Z,46.90
2018-08-14T02:19:55.104Z,46.87
2018-08-14T02:22:28.371Z,47.20
2018-08-14T02:25:05.161Z,45.87
2018-08-14T02:27:41.805Z,46.40
2018-08-14T02:30:18.408Z,46.60
2018-08-14T02:32:54.336Z,46.80
2018-08-14T02:35:28.377Z,47.37
2018-08-14T02:38:02.101Z,47.73
2018-08-14T02:40:36.044Z,46.93
2018-08-14T02:43:11.111Z,48.63
2018-08-14T02:45:44.443Z,47.30
2018-08-14T02:48:17.938Z,49.03
2018-08-14T02:50:53.881Z,49.43
2018-08-14T02:53:31.283Z,47.20
2018-08-14T02:56:07.794Z,47.30
2018-08-14T02:58:46.275Z,47.03
2018-08-14T03:01:22.703Z,48.60
2018-08-14T03:03:56.371Z,48.83
2018-08-14T03:06:30.669Z,49.17
2018-08-14T03:09:05.415Z,49.27
2018-08-14T03:11:38.780Z,49.10
2018-08-14T03:14:12.525Z,48.33
2018-08-14T03:16:52.675Z,47.23
2018-08-14T03:19:26.664Z,48.70
2018-08-14T03:22:00.309Z,50.57
2018-08-14T03:24:34.276Z,48.93
2018-08-14T03:27:07.575Z,50.13
2018-08-14T03:29:40.993Z,49.33
2018-08-14T03:32:16.489Z,49.10
2018-08-14T03:34:50.453Z,49.57
2018-08-14T03:37:24.433Z,50.93
2018-08-14T03:40:00.480Z,50.73
2018-08-14T03:42:34.967Z,50.10
2018-08-14T03:45:08.565Z,49.10
2018-08-14T03:47:42.293Z,50.50
2018-08-14T03:50:17.865Z,51.23
2018-08-14T03:52:52.729Z,51.37
2018-08-14T03:55:26.399Z,51.00
2018-08-14T03:58:00.562Z,51.13
2018-08-14T04:00:37.252Z,51.63
2018-08-14T04:03:16.590Z,50.83
2018-08-14T04:05:52.231Z,53.30
2018-08-14T04:08:30.532Z,53.53
2018-08-14T04:11:03.953Z,55.40
2018-08-14T04:13:39.206Z,53.30
2018-08-14T04:16:14.587Z,53.13
2018-08-14T04:18:54.651Z,53.27
2018-08-14T04:21:28.882Z,52.87
2018-08-14T04:24:03.682Z,54.47
2018-08-14T04:26:38.502Z,54.03
2018-08-14T04:29:12.402Z,54.80
2018-08-14T04:34:38.383Z,54.00
2018-08-14T04:37:14.084Z,55.03
2018-08-14T04:39:47.406Z,54.17
2018-08-14T04:42:23.103Z,53.50
2018-08-14T04:44:57.335Z,54.57
2018-08-14T04:50:16.738Z,55.53
2018-08-14T04:52:50.355Z,54.80
2018-08-14T04:55:27.618Z,55.83
2018-08-14T04:58:10.072Z,55.23
2018-08-14T05:00:44.587Z,55.57
2018-08-14T05:03:24.495Z,55.23
2018-08-14T05:05:59.253Z,53.27
2018-08-14T05:08:32.791Z,54.23
2018-08-14T05:11:07.065Z,55.50
2018-08-14T05:13:45.117Z,52.43
2018-08-14T05:16:19.951Z,53.60
2018-08-14T05:18:57.390Z,54.43
2018-08-14T05:21:30.997Z,55.20
2018-08-14T05:24:04.745Z,55.70
2018-08-14T05:26:38.434Z,54.53
2018-08-14T05:29:19.230Z,54.07
2018-08-14T05:31:54.240Z,54.17
2018-08-14T05:34:29.510Z,52.50
2018-08-14T05:37:06.624Z,53.07
2018-08-14T05:39:42.863Z,52.10
2018-08-14T05:42:25.266Z,52.00
2018-08-14T05:45:05.034Z,53.57
2018-08-14T05:47:38.588Z,53.23
2018-08-14T05:50:14.236Z,52.33
2018-08-14T05:52:48.430Z,53.27
2018-08-14T05:55:25.403Z,54.57
2018-08-14T05:58:03.225Z,51.50
2018-08-14T06:00:42.555Z,52.53
2018-08-14T06:03:22.449Z,51.57
2018-08-14T06:05:57.531Z,51.87
2018-08-14T06:08:33.428Z,51.43
2018-08-14T06:11:08.339Z,51.63
2018-08-14T06:13:43.033Z,51.10
2018-08-14T06:16:17.704Z,50.63
2018-08-14T06:18:52.404Z,50.03
2018-08-14T06:21:27.255Z,50.93
2018-08-14T06:24:02.426Z,52.50
2018-08-14T06:26:41.597Z,51.33
2018-08-14T06:29:17.229Z,53.60
2018-08-14T06:31:51.086Z,53.33
2018-08-14T06:34:24.744Z,51.57
2018-08-14T06:37:01.557Z,52.20
2018-08-14T06:39:43.828Z,53.23
2018-08-14T06:42:17.625Z,51.90
2018-08-14T06:44:51.575Z,50.87
2018-08-14T06:47:26.276Z,52.77
2018-08-14T06:49:59.939Z,51.13
2018-08-14T06:52:34.339Z,52.07
2018-08-14T06:55:10.119Z,51.53
2018-08-14T06:57:45.622Z,51.53
2018-08-14T07:00:25.632Z,52.63
2018-08-14T07:03:07.530Z,52.13
2018-08-14T07:05:41.717Z,49.60
2018-08-14T07:08:15.484Z,51.17
2018-08-14T07:10:49.563Z,52.87
2018-08-14T07:13:22.940Z,51.10
2018-08-14T07:15:58.724Z,51.53
2018-08-14T07:18:32.476Z,52.63
2018-08-14T07:21:07.286Z,54.33
2018-08-14T07:23:43.123Z,52.67
2018-08-14T07:26:17.806Z,51.53
2018-08-14T07:28:51.785Z,50.60
2018-08-14T07:31:28.253Z,49.83
2018-08-14T07:34:03.310Z,49.17
2018-08-14T07:36:36.657Z,52.03
2018-08-14T07:39:11.520Z,51.87
2018-08-14T07:41:48.992Z,50.47
2018-08-14T07:44:22.513Z,49.70
2018-08-14T14:35:18.807Z,54.37
2018-08-14T14:37:52.335Z,57.67
2018-08-14T14:40:29.059Z,56.13
2018-08-14T14:43:04.966Z,55.93
2018-08-14T14:45:39.443Z,56.23
2018-08-14T14:48:17.245Z,57.03
2018-08-14T14:50:51.819Z,57.07
2018-08-14T14:53:24.964Z,58.13
2018-08-14T14:56:02.653Z,57.63
2018-08-14T14:58:39.268Z,56.47
2018-08-14T15:01:13.330Z,58.10
2018-08-14T15:03:55.717Z,57.60
2018-08-14T15:06:44.694Z,57.50
2018-08-14T15:09:22.471Z,57.50
2018-08-14T15:11:58.159Z,60.23
2018-08-14T15:14:42.899Z,63.63
2018-08-14T15:17:19.995Z,60.90
2018-08-14T15:19:57.960Z,61.93
2018-08-14T15:22:31.518Z,61.20
2018-08-14T15:25:05.984Z,63.63
2018-08-14T15:27:39.230Z,63.70
2018-08-14T15:30:21.994Z,61.23
2018-08-14T15:32:56.205Z,63.70
2018-08-14T15:35:29.477Z,60.47
2018-08-14T15:38:05.225Z,59.73
2018-08-14T15:40:39.047Z,59.97
2018-08-14T15:43:14.480Z,61.50
2018-08-14T15:45:47.726Z,62.83
2018-08-14T15:48:20.871Z,58.23
2018-08-14T15:50:54.326Z,60.97
2018-08-14T15:53:27.821Z,57.47
2018-08-14T15:56:01.995Z,58.77
2018-08-14T15:58:36.298Z,57.87
2018-08-14T16:01:10.146Z,56.00
2018-08-14T16:03:43.645Z,59.10
2018-08-14T16:06:17.483Z,58.50
2018-08-14T16:08:51.323Z,62.40
2018-08-14T16:11:25.822Z,62.23
2018-08-14T16:13:59.863Z,59.10
2018-08-14T16:16:33.538Z,56.70
2018-08-14T16:19:07.254Z,62.57
2018-08-14T16:21:42.620Z,64.63
2018-08-14T16:24:17.583Z,62.47
2018-08-14T16:26:53.069Z,62.17
2018-08-14T16:29:27.959Z,62.73
2018-08-14T16:32:02.103Z,63.07
2018-08-14T16:34:36.746Z,65.17
2018-08-14T16:37:11.162Z,62.47
2018-08-14T16:39:46.668Z,63.33
2018-08-14T16:42:20.731Z,61.07
2018-08-14T16:44:54.873Z,61.73
2018-08-14T16:47:29.677Z,61.30
2018-08-14T16:50:02.955Z,62.57
2018-08-14T16:52:37.162Z,62.57
2018-08-14T16:55:11.145Z,66.50
2018-08-14T16:57:43.963Z,73.70
2018-08-14T17:00:21.970Z,80.60
2018-08-14T17:03:00.639Z,79.20
2018-08-14T17:05:34.944Z,77.23
2018-08-14T17:08:08.836Z,76.77
2018-08-14T17:10:46.370Z,79.77
2018-08-14T17:13:21.048Z,86.20
2018-08-14T17:15:55.659Z,86.30
2018-08-14T17:18:28.993Z,87.50
2018-08-14T17:20:59.410Z,85.27
2018-08-14T17:23:33.254Z,88.93
2018-08-14T17:26:06.673Z,87.83
2018-08-14T17:28:40.209Z,88.33
2018-08-14T17:31:16.156Z,90.33
2018-08-14T17:33:49.326Z,92.23
2018-08-14T17:36:24.012Z,93.10
2018-08-14T17:38:57.999Z,96.17
2018-08-14T17:41:32.504Z,97.03
2018-08-14T17:44:05.865Z,92.03
2018-08-14T17:46:40.763Z,96.47
2018-08-14T17:49:18.018Z,95.70
2018-08-14T17:51:55.217Z,97.87
2018-08-14T17:54:28.568Z,97.07
2018-08-14T17:57:02.148Z,99.33
2018-08-14T17:59:36.149Z,98.53
2018-08-14T18:02:09.520Z,101.27
2018-08-14T18:04:44.348Z,98.07
2018-08-14T18:07:18.357Z,101.87
2018-08-14T18:09:51.722Z,99.33
2018-08-14T18:12:25.103Z,97.83
2018-08-14T18:14:58.325Z,101.37
2018-08-14T18:17:32.147Z,99.47
2018-08-14T18:20:05.690Z,102.77
2018-08-14T18:22:39.867Z,102.00
2018-08-14T18:25:16.395Z,98.07
2018-08-14T18:27:52.188Z,100.33
2018-08-14T18:30:26.584Z,104.63
2018-08-14T18:33:01.176Z,104.10
2018-08-14T18:35:36.286Z,105.40
2018-08-14T18:38:10.220Z,109.17
2018-08-14T18:40:44.308Z,106.53
2018-08-14T18:43:20.945Z,108.13
2018-08-14T18:45:54.407Z,112.97
2018-08-14T18:48:29.405Z,114.83
2018-08-14T18:51:03.821Z,112.83
2018-08-14T18:53:37.313Z,109.33
2018-08-14T18:56:10.592Z,112.57
2018-08-14T18:58:44.962Z,110.77
2018-08-14T19:01:18.423Z,112.10
2018-08-14T19:03:52.040Z,110.50
2018-08-14T19:06:26.262Z,111.03
2018-08-14T19:09:00.192Z,113.83
2018-08-14T19:11:38.417Z,111.30
2018-08-14T19:14:13.387Z,111.93
2018-08-14T19:16:47.589Z,116.20
2018-08-14T19:19:27.750Z,114.73
2018-08-14T19:22:11.943Z,114.30
2018-08-14T19:24:45.167Z,113.77
2018-08-14T19:27:18.736Z,115.47
2018-08-14T19:29:53.425Z,118.70
2018-08-14T19:32:31.125Z,116.67
2018-08-14T19:35:04.843Z,115.73
2018-08-14T19:37:39.205Z,114.00
2018-08-14T19:40:28.010Z,115.07
2018-08-14T19:43:07.397Z,116.67
2018-08-14T19:45:45.789Z,114.23
2018-08-14T19:48:20.608Z,114.97
2018-08-14T19:50:54.672Z,116.93
2018-08-14T19:53:30.270Z,116.57
2018-08-14T19:56:03.653Z,114.87
2018-08-14T19:58:37.879Z,116.90
2018-08-14T20:01:11.164Z,118.33
2018-08-14T20:03:47.526Z,117.60
2018-08-14T20:06:28.328Z,120.07
2018-08-14T20:09:06.834Z,121.37
2018-08-14T20:11:41.770Z,129.80
2018-08-14T20:14:16.619Z,131.60
2018-08-14T20:16:50.707Z,129.00
2018-08-14T20:19:26.861Z,133.00
2018-08-14T20:22:02.474Z,132.37
2018-08-14T20:24:36.352Z,133.20
2018-08-14T20:27:09.573Z,132.20
2018-08-14T20:29:42.963Z,129.73
2018-08-14T20:32:17.341Z,128.70
2018-08-14T20:34:51.835Z,126.23
2018-08-14T20:37:25.393Z,130.77
2018-08-14T20:40:00.070Z,128.73
2018-08-14T20:42:34.623Z,131.20
2018-08-14T20:45:10.033Z,131.77
2018-08-14T20:47:47.711Z,130.00
2018-08-14T20:50:30.143Z,129.77
2018-08-14T20:53:09.473Z,128.97
2018-08-14T20:55:45.900Z,129.60
2018-08-14T20:58:20.885Z,119.63
2018-08-14T21:00:54.294Z,121.67
2018-08-14T21:03:28.583Z,121.03
2018-08-14T21:06:02.957Z,120.90
2018-08-14T21:08:36.429Z,115.97
2018-08-14T21:11:10.241Z,115.13
2018-08-14T21:13:46.251Z,113.30
2018-08-14T21:16:27.253Z,111.80
2018-08-14T21:19:04.124Z,112.37
2018-08-14T21:21:38.038Z,116.27
2018-08-14T21:24:11.478Z,111.00
2018-08-14T21:26:45.073Z,115.13
2018-08-14T21:29:22.354Z,112.07
2018-08-14T21:31:56.458Z,108.27
2018-08-14T21:37:17.901Z,105.70
2018-08-14T21:39:52.537Z,105.00
2018-08-14T21:42:26.208Z,106.50
2018-08-14T21:44:59.699Z,108.73
2018-08-14T21:50:15.786Z,108.07
2018-08-14T21:52:49.126Z,109.80
2018-08-14T21:55:23.459Z,110.07
2018-08-14T21:57:57.879Z,106.27
2018-08-14T22:00:48.683Z,106.93
2018-08-14T22:03:29.114Z,104.20
2018-08-14T22:06:03.006Z,105.90
2018-08-14T22:08:36.980Z,106.43
2018-08-14T22:11:13.590Z,105.97
2018-08-14T22:13:47.037Z,105.60
2018-08-14T22:16:21.759Z,105.80
2018-08-14T22:18:56.304Z,107.67
2018-08-14T22:21:29.795Z,104.27
2018-08-14T22:24:03.427Z,103.07
2018-08-14T22:26:38.161Z,100.83
2018-08-14T22:29:12.022Z,102.40
2018-08-14T22:31:46.507Z,100.60
2018-08-14T22:34:19.980Z,98.57
2018-08-14T22:36:55.292Z,101.33
2018-08-14T22:39:28.614Z,101.17
2018-08-14T22:42:06.415Z,93.50
2018-08-14T22:44:42.458Z,113.10
2018-08-14T22:47:18.016Z,116.20
2018-08-14T22:49:52.632Z,111.73
2018-08-14T22:52:28.773Z,113.43
2018-08-14T22:55:02.470Z,115.93
2018-08-14T22:57:38.187Z,114.60
2018-08-14T23:00:15.928Z,111.03
2018-08-14T23:02:52.521Z,110.33
2018-08-14T23:05:25.905Z,106.97
2018-08-14T23:08:03.195Z,110.27
2018-08-14T23:10:53.626Z,109.77
2018-08-14T23:13:37.973Z,109.77
2018-08-14T23:16:14.104Z,109.33
2018-08-14T23:18:47.941Z,110.97
2018-08-14T23:21:22.955Z,110.70
2018-08-14T23:23:59.180Z,112.47
2018-08-14T23:26:48.641Z,111.37
2018-08-14T23:29:26.372Z,107.90
2018-08-14T23:32:06.249Z,113.83
2018-08-14T23:34:41.622Z,109.20
2018-08-14T23:37:15.737Z,108.93
2018-08-14T23:39:50.216Z,109.33
2018-08-14T23:42:24.252Z,109.93
2018-08-14T23:44:58.623Z,110.73
2018-08-14T23:47:32.813Z,111.83
2018-08-14T23:50:06.367Z,112.87
2018-08-14T23:52:39.623Z,113.83
2018-08-14T23:55:15.310Z,112.73
2018-08-14T23:57:54.409Z,110.80
